Estación de Algarrobo Bajo INIA
Ultimos registro cada 15 minutos 53
| N° | Estación | Fecha / Hora | Temperatura | Humedad | Lluvia | Velocidad | Dirección | Radiación | Presion |
| 53 | Algarrobo Bajo INIA | 08-05-2026 13:00 | 22,2 | 35,9 | 0 | 2,9 | 204 | 604 | 0 |
| 52 | Algarrobo Bajo INIA | 08-05-2026 12:45 | 21,7 | 37,3 | 0 | 2,6 | 192 | 590 | 0 |
| 51 | Algarrobo Bajo INIA | 08-05-2026 12:30 | 21,3 | 38,6 | 0 | 2,5 | 225 | 595 | 0 |
| 50 | Algarrobo Bajo INIA | 08-05-2026 12:15 | 20,9 | 39,1 | 0 | 2,1 | 195 | 586 | 0 |
| 49 | Algarrobo Bajo INIA | 08-05-2026 12:00 | 20,2 | 39,1 | 0 | 1,3 | 180 | 573 | 0 |
| 48 | Algarrobo Bajo INIA | 08-05-2026 11:45 | 18,9 | 44,5 | 0 | 1,1 | 212 | 555 | 0 |
| 47 | Algarrobo Bajo INIA | 08-05-2026 11:30 | 18,2 | 44,6 | 0 | 1,3 | 228 | 544 | 0 |
| 46 | Algarrobo Bajo INIA | 08-05-2026 11:15 | 17,5 | 47,6 | 0 | 1 | 181 | 522 | 0 |
| 45 | Algarrobo Bajo INIA | 08-05-2026 11:00 | 16,5 | 50,2 | 0 | 0,5 | 199 | 501 | 0 |
| 44 | Algarrobo Bajo INIA | 08-05-2026 10:45 | 15,7 | 53,1 | 0 | 0,2 | 202 | 386 | 0 |
| 43 | Algarrobo Bajo INIA | 08-05-2026 10:30 | 14,4 | 54,2 | 0 | 0 | 32 | 364 | 0 |
| 42 | Algarrobo Bajo INIA | 08-05-2026 10:15 | 12,9 | 59,2 | 0 | 0 | 8 | 298 | 0 |
| 41 | Algarrobo Bajo INIA | 08-05-2026 10:00 | 11,6 | 63,2 | 0 | 0,5 | 51 | 254 | 0 |
| 40 | Algarrobo Bajo INIA | 08-05-2026 09:45 | 10,7 | 65 | 0 | 1,3 | 58 | 221 | 0 |
| 39 | Algarrobo Bajo INIA | 08-05-2026 09:30 | 10 | 66 | 0 | 1,8 | 48 | 205 | 0 |
| 38 | Algarrobo Bajo INIA | 08-05-2026 09:15 | 9 | 71,2 | 0 | 1,5 | 48 | 208 | 0 |
| 37 | Algarrobo Bajo INIA | 08-05-2026 09:00 | 7,8 | 76,2 | 0 | 1,6 | 45 | 174 | 0 |
| 36 | Algarrobo Bajo INIA | 08-05-2026 08:45 | 6,8 | 79,8 | 0 | 1,6 | 47 | 142 | 0 |
| 35 | Algarrobo Bajo INIA | 08-05-2026 08:30 | 6,3 | 83,4 | 0 | 1,2 | 42 | 112 | 0 |
| 34 | Algarrobo Bajo INIA | 08-05-2026 08:15 | 5,9 | 85,8 | 0 | 0,8 | 50 | 100 | 0 |
| 33 | Algarrobo Bajo INIA | 08-05-2026 08:00 | 5,1 | 89,5 | 0 | 0,2 | 53 | 58 | 0 |
| 32 | Algarrobo Bajo INIA | 08-05-2026 07:45 | 4,3 | 91 | 0 | 0,2 | 38 | 18 | 0 |
| 31 | Algarrobo Bajo INIA | 08-05-2026 07:30 | 4,2 | 89,2 | 0 | 0,3 | 12 | 4 | 0 |
| 30 | Algarrobo Bajo INIA | 08-05-2026 07:15 | 3,9 | 90,4 | 0 | 0,6 | 49 | 1 | 0 |
| 29 | Algarrobo Bajo INIA | 08-05-2026 07:00 | 4,1 | 90,9 | 0 | 0 | 253 | 0 | 0 |
| 28 | Algarrobo Bajo INIA | 08-05-2026 06:45 | 4,4 | 89,7 | 0 | 0,2 | 288 | 0 | 0 |
| 27 | Algarrobo Bajo INIA | 08-05-2026 06:30 | 5,1 | 88,8 | 0 | 0,2 | 45 | 0 | 0 |
| 26 | Algarrobo Bajo INIA | 08-05-2026 06:15 | 4,9 | 90,1 | 0 | 0,2 | 41 | 0 | 0 |
| 25 | Algarrobo Bajo INIA | 08-05-2026 06:00 | 4,7 | 89,6 | 0 | 0,6 | 43 | 0 | 0 |
| 24 | Algarrobo Bajo INIA | 08-05-2026 05:45 | 4,7 | 90,2 | 0 | 0,6 | 44 | 0 | 0 |
| 23 | Algarrobo Bajo INIA | 08-05-2026 05:30 | 4,5 | 89,8 | 0 | 0,1 | 349 | 0 | 0 |
| 22 | Algarrobo Bajo INIA | 08-05-2026 05:15 | 4,4 | 88,8 | 0 | 0 | 0 | 0 | 0 |
| 21 | Algarrobo Bajo INIA | 08-05-2026 05:00 | 4,7 | 88,4 | 0 | 0 | 287 | 0 | 0 |
| 20 | Algarrobo Bajo INIA | 08-05-2026 04:45 | 5,3 | 88,1 | 0 | 0 | 0 | 0 | 0 |
| 19 | Algarrobo Bajo INIA | 08-05-2026 04:30 | 5,6 | 87,8 | 0 | 0,3 | 43 | 0 | 0 |
| 18 | Algarrobo Bajo INIA | 08-05-2026 04:15 | 5 | 88,8 | 0 | 0,3 | 39 | 0 | 0 |
| 17 | Algarrobo Bajo INIA | 08-05-2026 04:00 | 6,2 | 85,2 | 0 | 0,1 | 65 | 0 | 0 |
| 16 | Algarrobo Bajo INIA | 08-05-2026 03:45 | 6,6 | 86,9 | 0 | 0,4 | 15 | 0 | 0 |
| 15 | Algarrobo Bajo INIA | 08-05-2026 03:30 | 6,4 | 87,3 | 0 | 0,3 | 27 | 0 | 0 |
| 14 | Algarrobo Bajo INIA | 08-05-2026 03:15 | 6 | 87,9 | 0 | 0,3 | 34 | 0 | 0 |
| 13 | Algarrobo Bajo INIA | 08-05-2026 03:00 | 6,1 | 87,3 | 0 | 0,7 | 48 | 0 | 0 |
| 12 | Algarrobo Bajo INIA | 08-05-2026 02:45 | 6,6 | 86,9 | 0 | 0,2 | 11 | 0 | 0 |
| 11 | Algarrobo Bajo INIA | 08-05-2026 02:30 | 5,8 | 86,7 | 0 | 0,1 | 320 | 0 | 0 |
| 10 | Algarrobo Bajo INIA | 08-05-2026 02:15 | 6,3 | 85 | 0 | 0 | 0 | 0 | 0 |
| 9 | Algarrobo Bajo INIA | 08-05-2026 02:00 | 7,3 | 82,1 | 0 | 0 | 0 | 0 | 0 |
| 8 | Algarrobo Bajo INIA | 08-05-2026 01:45 | 8,4 | 79,8 | 0 | 0,8 | 44 | 0 | 0 |
| 7 | Algarrobo Bajo INIA | 08-05-2026 01:30 | 8,4 | 81,6 | 0 | 1,3 | 44 | 0 | 0 |
| 6 | Algarrobo Bajo INIA | 08-05-2026 01:15 | 8,8 | 80,7 | 0 | 0,6 | 40 | 0 | 0 |
| 5 | Algarrobo Bajo INIA | 08-05-2026 01:00 | 8,6 | 81,1 | 0 | 0,4 | 26 | 0 | 0 |
| 4 | Algarrobo Bajo INIA | 08-05-2026 00:45 | 8,3 | 80,9 | 0 | 1,1 | 35 | 0 | 0 |
| 3 | Algarrobo Bajo INIA | 08-05-2026 00:30 | 9,4 | 78,2 | 0 | 0,6 | 53 | 0 | 0 |
| 2 | Algarrobo Bajo INIA | 08-05-2026 00:15 | 11 | 74,8 | 0 | 0,8 | 117 | 0 | 0 |
| 1 | Algarrobo Bajo INIA | 08-05-2026 00:00 | 11,6 | 73,4 | 0 | 1,6 | 215 | 0 | 0 |